sensor_id;sensor_type;location;lat;lon;timestamp;P1;durP1;ratioP1;P2;durP2;ratioP2
5704;SDS011;2877;48.238;11.160;2023-07-24T00:00:13;11.80;;;7.13;;
5704;SDS011;2877;48.238;11.160;2023-07-24T00:02:39;17.43;;;6.77;;
5704;SDS011;2877;48.238;11.160;2023-07-24T00:05:05;14.03;;;8.10;;
5704;SDS011;2877;48.238;11.160;2023-07-24T00:07:31;22.10;;;8.20;;
5704;SDS011;2877;48.238;11.160;2023-07-24T00:09:57;11.53;;;7.33;;
5704;SDS011;2877;48.238;11.160;2023-07-24T00:12:22;9.80;;;7.07;;
5704;SDS011;2877;48.238;11.160;2023-07-24T00:14:48;12.03;;;7.50;;
5704;SDS011;2877;48.238;11.160;2023-07-24T00:17:13;12.10;;;7.60;;
5704;SDS011;2877;48.238;11.160;2023-07-24T00:19:39;11.47;;;7.50;;
5704;SDS011;2877;48.238;11.160;2023-07-24T00:22:04;12.50;;;8.03;;
5704;SDS011;2877;48.238;11.160;2023-07-24T00:24:31;19.93;;;7.60;;
5704;SDS011;2877;48.238;11.160;2023-07-24T00:26:57;11.77;;;8.30;;
5704;SDS011;2877;48.238;11.160;2023-07-24T00:29:22;14.43;;;7.20;;
5704;SDS011;2877;48.238;11.160;2023-07-24T00:31:48;13.07;;;7.80;;
5704;SDS011;2877;48.238;11.160;2023-07-24T00:34:13;10.47;;;7.03;;
5704;SDS011;2877;48.238;11.160;2023-07-24T00:36:39;12.60;;;8.30;;
5704;SDS011;2877;48.238;11.160;2023-07-24T00:39:05;12.10;;;7.20;;
5704;SDS011;2877;48.238;11.160;2023-07-24T00:41:30;12.33;;;8.30;;
5704;SDS011;2877;48.238;11.160;2023-07-24T00:43:56;12.43;;;7.53;;
5704;SDS011;2877;48.238;11.160;2023-07-24T00:46:22;13.83;;;7.43;;
5704;SDS011;2877;48.238;11.160;2023-07-24T00:48:48;11.20;;;7.53;;
5704;SDS011;2877;48.238;11.160;2023-07-24T00:51:14;16.87;;;7.63;;
5704;SDS011;2877;48.238;11.160;2023-07-24T00:53:40;12.60;;;7.10;;
5704;SDS011;2877;48.238;11.160;2023-07-24T00:56:06;15.30;;;6.97;;
5704;SDS011;2877;48.238;11.160;2023-07-24T00:58:33;10.80;;;7.03;;
5704;SDS011;2877;48.238;11.160;2023-07-24T01:01:01;20.40;;;8.20;;
5704;SDS011;2877;48.238;11.160;2023-07-24T01:03:31;12.40;;;7.83;;
5704;SDS011;2877;48.238;11.160;2023-07-24T01:05:58;14.80;;;7.83;;
5704;SDS011;2877;48.238;11.160;2023-07-24T01:08:26;10.93;;;6.80;;
5704;SDS011;2877;48.238;11.160;2023-07-24T01:10:51;12.03;;;7.63;;
5704;SDS011;2877;48.238;11.160;2023-07-24T01:13:19;15.57;;;7.97;;
5704;SDS011;2877;48.238;11.160;2023-07-24T01:16:00;13.77;;;7.30;;
5704;SDS011;2877;48.238;11.160;2023-07-24T01:18:32;11.37;;;8.10;;
5704;SDS011;2877;48.238;11.160;2023-07-24T01:21:02;10.63;;;6.77;;
5704;SDS011;2877;48.238;11.160;2023-07-24T01:23:50;11.30;;;7.07;;
5704;SDS011;2877;48.238;11.160;2023-07-24T01:26:20;15.00;;;7.40;;
5704;SDS011;2877;48.238;11.160;2023-07-24T01:28:48;11.90;;;7.80;;
5704;SDS011;2877;48.238;11.160;2023-07-24T01:31:14;14.17;;;8.30;;
5704;SDS011;2877;48.238;11.160;2023-07-24T01:33:41;13.70;;;8.60;;
5704;SDS011;2877;48.238;11.160;2023-07-24T01:36:07;10.10;;;7.40;;
5704;SDS011;2877;48.238;11.160;2023-07-24T01:38:33;12.90;;;7.70;;
5704;SDS011;2877;48.238;11.160;2023-07-24T01:41:00;13.30;;;7.57;;
5704;SDS011;2877;48.238;11.160;2023-07-24T01:43:26;14.00;;;8.57;;
5704;SDS011;2877;48.238;11.160;2023-07-24T01:45:53;12.20;;;8.30;;
5704;SDS011;2877;48.238;11.160;2023-07-24T01:48:19;13.07;;;8.03;;
5704;SDS011;2877;48.238;11.160;2023-07-24T01:50:44;12.50;;;8.00;;
5704;SDS011;2877;48.238;11.160;2023-07-24T01:53:10;12.30;;;8.40;;
5704;SDS011;2877;48.238;11.160;2023-07-24T01:55:35;17.20;;;9.00;;
5704;SDS011;2877;48.238;11.160;2023-07-24T01:58:01;14.67;;;8.47;;
5704;SDS011;2877;48.238;11.160;2023-07-24T02:00:27;14.60;;;8.97;;
5704;SDS011;2877;48.238;11.160;2023-07-24T02:02:52;15.43;;;9.37;;
5704;SDS011;2877;48.238;11.160;2023-07-24T02:05:18;17.23;;;8.60;;
5704;SDS011;2877;48.238;11.160;2023-07-24T02:07:43;18.53;;;8.13;;
5704;SDS011;2877;48.238;11.160;2023-07-24T02:10:09;14.83;;;8.97;;
5704;SDS011;2877;48.238;11.160;2023-07-24T02:12:34;12.73;;;7.87;;
5704;SDS011;2877;48.238;11.160;2023-07-24T02:15:01;12.73;;;7.87;;
5704;SDS011;2877;48.238;11.160;2023-07-24T02:17:26;21.53;;;9.13;;
5704;SDS011;2877;48.238;11.160;2023-07-24T02:19:52;11.03;;;7.80;;
5704;SDS011;2877;48.238;11.160;2023-07-24T02:22:18;13.47;;;8.73;;
5704;SDS011;2877;48.238;11.160;2023-07-24T02:24:43;11.90;;;7.70;;
5704;SDS011;2877;48.238;11.160;2023-07-24T02:27:12;12.83;;;8.50;;
5704;SDS011;2877;48.238;11.160;2023-07-24T02:29:39;13.80;;;8.80;;
5704;SDS011;2877;48.238;11.160;2023-07-24T02:32:04;12.60;;;8.47;;
5704;SDS011;2877;48.238;11.160;2023-07-24T02:34:30;14.97;;;8.50;;
5704;SDS011;2877;48.238;11.160;2023-07-24T02:36:55;16.17;;;8.57;;
5704;SDS011;2877;48.238;11.160;2023-07-24T02:39:21;11.07;;;7.23;;
5704;SDS011;2877;48.238;11.160;2023-07-24T02:41:47;18.07;;;8.93;;
5704;SDS011;2877;48.238;11.160;2023-07-24T02:44:13;11.90;;;7.77;;
5704;SDS011;2877;48.238;11.160;2023-07-24T02:46:39;17.40;;;8.90;;
5704;SDS011;2877;48.238;11.160;2023-07-24T02:49:05;15.80;;;9.10;;
5704;SDS011;2877;48.238;11.160;2023-07-24T02:51:30;17.97;;;7.17;;
5704;SDS011;2877;48.238;11.160;2023-07-24T02:53:56;17.73;;;8.20;;
5704;SDS011;2877;48.238;11.160;2023-07-24T02:56:22;14.77;;;8.33;;
5704;SDS011;2877;48.238;11.160;2023-07-24T02:58:47;18.63;;;8.50;;
5704;SDS011;2877;48.238;11.160;2023-07-24T03:01:13;18.80;;;8.70;;
5704;SDS011;2877;48.238;11.160;2023-07-24T03:03:42;22.20;;;9.27;;
5704;SDS011;2877;48.238;11.160;2023-07-24T03:06:07;19.83;;;10.10;;
5704;SDS011;2877;48.238;11.160;2023-07-24T03:08:33;19.13;;;9.90;;
5704;SDS011;2877;48.238;11.160;2023-07-24T03:10:59;20.77;;;11.70;;
5704;SDS011;2877;48.238;11.160;2023-07-24T03:13:25;19.27;;;10.20;;
5704;SDS011;2877;48.238;11.160;2023-07-24T03:15:54;20.30;;;12.20;;
5704;SDS011;2877;48.238;11.160;2023-07-24T03:18:20;18.80;;;10.47;;
5704;SDS011;2877;48.238;11.160;2023-07-24T03:20:46;30.23;;;14.07;;
5704;SDS011;2877;48.238;11.160;2023-07-24T03:23:12;16.60;;;10.50;;
5704;SDS011;2877;48.238;11.160;2023-07-24T03:25:38;21.50;;;12.70;;
5704;SDS011;2877;48.238;11.160;2023-07-24T03:28:03;23.30;;;11.50;;
5704;SDS011;2877;48.238;11.160;2023-07-24T03:30:29;19.33;;;12.37;;
5704;SDS011;2877;48.238;11.160;2023-07-24T03:32:55;19.47;;;12.27;;
5704;SDS011;2877;48.238;11.160;2023-07-24T03:35:20;16.57;;;11.23;;
5704;SDS011;2877;48.238;11.160;2023-07-24T03:37:46;18.60;;;11.27;;
5704;SDS011;2877;48.238;11.160;2023-07-24T03:40:12;18.67;;;11.57;;
5704;SDS011;2877;48.238;11.160;2023-07-24T03:42:37;20.67;;;11.63;;
5704;SDS011;2877;48.238;11.160;2023-07-24T03:45:03;16.63;;;11.47;;
5704;SDS011;2877;48.238;11.160;2023-07-24T03:47:29;22.00;;;12.27;;
5704;SDS011;2877;48.238;11.160;2023-07-24T03:49:54;21.83;;;12.67;;
5704;SDS011;2877;48.238;11.160;2023-07-24T03:52:20;19.17;;;12.30;;
5704;SDS011;2877;48.238;11.160;2023-07-24T03:54:46;22.30;;;11.70;;
5704;SDS011;2877;48.238;11.160;2023-07-24T03:57:11;18.97;;;12.73;;
5704;SDS011;2877;48.238;11.160;2023-07-24T03:59:37;19.13;;;12.07;;
5704;SDS011;2877;48.238;11.160;2023-07-24T04:02:03;24.73;;;12.50;;
5704;SDS011;2877;48.238;11.160;2023-07-24T04:04:28;20.67;;;12.37;;
5704;SDS011;2877;48.238;11.160;2023-07-24T04:06:54;27.03;;;12.27;;
5704;SDS011;2877;48.238;11.160;2023-07-24T04:09:20;18.23;;;12.40;;
5704;SDS011;2877;48.238;11.160;2023-07-24T04:11:45;22.00;;;12.60;;
5704;SDS011;2877;48.238;11.160;2023-07-24T04:14:11;19.67;;;12.33;;
5704;SDS011;2877;48.238;11.160;2023-07-24T04:16:36;21.43;;;12.57;;
5704;SDS011;2877;48.238;11.160;2023-07-24T04:19:02;29.10;;;12.83;;
5704;SDS011;2877;48.238;11.160;2023-07-24T04:21:28;19.90;;;12.37;;
5704;SDS011;2877;48.238;11.160;2023-07-24T04:23:53;20.33;;;12.57;;
5704;SDS011;2877;48.238;11.160;2023-07-24T04:26:19;19.77;;;12.30;;
5704;SDS011;2877;48.238;11.160;2023-07-24T04:28:44;21.87;;;12.00;;
5704;SDS011;2877;48.238;11.160;2023-07-24T04:31:10;24.80;;;13.83;;
5704;SDS011;2877;48.238;11.160;2023-07-24T04:33:36;21.70;;;12.60;;
5704;SDS011;2877;48.238;11.160;2023-07-24T04:36:01;26.40;;;13.67;;
5704;SDS011;2877;48.238;11.160;2023-07-24T04:38:27;16.70;;;11.60;;
5704;SDS011;2877;48.238;11.160;2023-07-24T04:40:52;17.30;;;11.50;;
5704;SDS011;2877;48.238;11.160;2023-07-24T04:43:18;22.77;;;12.50;;
5704;SDS011;2877;48.238;11.160;2023-07-24T04:45:43;18.90;;;12.27;;
5704;SDS011;2877;48.238;11.160;2023-07-24T04:48:09;21.63;;;12.00;;
5704;SDS011;2877;48.238;11.160;2023-07-24T04:50:35;25.53;;;12.63;;
5704;SDS011;2877;48.238;11.160;2023-07-24T04:53:00;22.83;;;13.63;;
5704;SDS011;2877;48.238;11.160;2023-07-24T04:55:26;27.37;;;12.87;;
5704;SDS011;2877;48.238;11.160;2023-07-24T04:57:51;23.87;;;13.50;;
5704;SDS011;2877;48.238;11.160;2023-07-24T05:00:17;18.27;;;12.20;;
5704;SDS011;2877;48.238;11.160;2023-07-24T05:02:43;25.47;;;12.60;;
5704;SDS011;2877;48.238;11.160;2023-07-24T05:05:08;18.33;;;12.47;;
5704;SDS011;2877;48.238;11.160;2023-07-24T05:07:34;23.43;;;13.43;;
5704;SDS011;2877;48.238;11.160;2023-07-24T05:09:59;16.40;;;11.23;;
5704;SDS011;2877;48.238;11.160;2023-07-24T05:12:25;21.70;;;11.90;;
5704;SDS011;2877;48.238;11.160;2023-07-24T05:14:51;19.27;;;11.30;;
5704;SDS011;2877;48.238;11.160;2023-07-24T05:17:17;15.87;;;11.97;;
5704;SDS011;2877;48.238;11.160;2023-07-24T05:19:43;14.90;;;10.67;;
5704;SDS011;2877;48.238;11.160;2023-07-24T05:22:08;21.90;;;11.47;;
5704;SDS011;2877;48.238;11.160;2023-07-24T05:24:35;17.47;;;10.20;;
5704;SDS011;2877;48.238;11.160;2023-07-24T05:27:01;21.70;;;11.67;;
5704;SDS011;2877;48.238;11.160;2023-07-24T05:29:27;18.23;;;12.30;;
5704;SDS011;2877;48.238;11.160;2023-07-24T05:31:53;18.03;;;11.70;;
5704;SDS011;2877;48.238;11.160;2023-07-24T05:34:18;17.60;;;11.97;;
5704;SDS011;2877;48.238;11.160;2023-07-24T05:36:44;17.33;;;11.47;;
5704;SDS011;2877;48.238;11.160;2023-07-24T05:39:09;17.20;;;12.20;;
5704;SDS011;2877;48.238;11.160;2023-07-24T05:41:35;18.27;;;12.17;;
5704;SDS011;2877;48.238;11.160;2023-07-24T05:44:00;14.40;;;10.80;;
5704;SDS011;2877;48.238;11.160;2023-07-24T05:46:26;18.23;;;11.93;;
5704;SDS011;2877;48.238;11.160;2023-07-24T05:48:51;14.63;;;10.43;;
5704;SDS011;2877;48.238;11.160;2023-07-24T05:51:17;12.50;;;10.30;;
5704;SDS011;2877;48.238;11.160;2023-07-24T05:53:43;14.20;;;10.20;;
5704;SDS011;2877;48.238;11.160;2023-07-24T05:56:08;15.50;;;10.20;;
5704;SDS011;2877;48.238;11.160;2023-07-24T05:58:34;17.27;;;10.20;;
5704;SDS011;2877;48.238;11.160;2023-07-24T06:01:00;15.90;;;10.60;;
5704;SDS011;2877;48.238;11.160;2023-07-24T06:03:25;12.20;;;8.63;;
5704;SDS011;2877;48.238;11.160;2023-07-24T06:05:51;12.93;;;8.77;;
5704;SDS011;2877;48.238;11.160;2023-07-24T06:08:18;13.07;;;9.30;;
5704;SDS011;2877;48.238;11.160;2023-07-24T06:10:45;13.50;;;9.80;;
5704;SDS011;2877;48.238;11.160;2023-07-24T06:13:16;14.63;;;9.63;;
5704;SDS011;2877;48.238;11.160;2023-07-24T06:15:42;14.97;;;10.07;;
5704;SDS011;2877;48.238;11.160;2023-07-24T06:18:08;13.17;;;9.60;;
5704;SDS011;2877;48.238;11.160;2023-07-24T06:20:34;14.23;;;10.03;;
5704;SDS011;2877;48.238;11.160;2023-07-24T06:22:59;12.00;;;8.80;;
5704;SDS011;2877;48.238;11.160;2023-07-24T06:25:25;11.60;;;8.67;;
5704;SDS011;2877;48.238;11.160;2023-07-24T06:27:50;13.33;;;9.07;;
5704;SDS011;2877;48.238;11.160;2023-07-24T06:30:16;14.33;;;8.90;;
5704;SDS011;2877;48.238;11.160;2023-07-24T06:32:42;16.97;;;8.73;;
5704;SDS011;2877;48.238;11.160;2023-07-24T06:35:07;12.00;;;8.43;;
5704;SDS011;2877;48.238;11.160;2023-07-24T06:37:33;14.03;;;8.80;;
5704;SDS011;2877;48.238;11.160;2023-07-24T06:39:58;10.80;;;8.23;;
5704;SDS011;2877;48.238;11.160;2023-07-24T06:42:24;11.37;;;8.60;;
5704;SDS011;2877;48.238;11.160;2023-07-24T06:44:50;19.23;;;9.50;;
5704;SDS011;2877;48.238;11.160;2023-07-24T06:47:15;11.30;;;8.20;;
5704;SDS011;2877;48.238;11.160;2023-07-24T06:49:41;14.70;;;9.73;;
5704;SDS011;2877;48.238;11.160;2023-07-24T06:52:06;14.03;;;9.50;;
5704;SDS011;2877;48.238;11.160;2023-07-24T06:54:32;12.13;;;8.20;;
5704;SDS011;2877;48.238;11.160;2023-07-24T06:56:57;17.03;;;9.43;;
5704;SDS011;2877;48.238;11.160;2023-07-24T06:59:23;13.40;;;7.00;;
5704;SDS011;2877;48.238;11.160;2023-07-24T07:01:49;10.83;;;7.07;;
5704;SDS011;2877;48.238;11.160;2023-07-24T07:04:14;13.13;;;6.83;;
5704;SDS011;2877;48.238;11.160;2023-07-24T07:06:41;11.03;;;7.60;;
5704;SDS011;2877;48.238;11.160;2023-07-24T07:09:06;12.00;;;7.30;;
5704;SDS011;2877;48.238;11.160;2023-07-24T07:11:32;10.20;;;7.40;;
5704;SDS011;2877;48.238;11.160;2023-07-24T07:13:57;10.90;;;7.17;;
5704;SDS011;2877;48.238;11.160;2023-07-24T07:16:23;11.00;;;7.60;;
5704;SDS011;2877;48.238;11.160;2023-07-24T07:18:48;14.03;;;8.23;;
5704;SDS011;2877;48.238;11.160;2023-07-24T07:21:14;12.13;;;8.10;;
5704;SDS011;2877;48.238;11.160;2023-07-24T07:23:39;13.93;;;8.10;;
5704;SDS011;2877;48.238;11.160;2023-07-24T07:26:05;12.53;;;9.20;;
5704;SDS011;2877;48.238;11.160;2023-07-24T07:28:31;14.27;;;9.37;;
5704;SDS011;2877;48.238;11.160;2023-07-24T07:30:56;16.87;;;9.13;;
5704;SDS011;2877;48.238;11.160;2023-07-24T07:33:22;16.20;;;9.20;;
5704;SDS011;2877;48.238;11.160;2023-07-24T07:35:48;14.93;;;9.57;;
5704;SDS011;2877;48.238;11.160;2023-07-24T07:38:14;13.10;;;9.40;;
5704;SDS011;2877;48.238;11.160;2023-07-24T07:40:39;13.40;;;9.53;;
5704;SDS011;2877;48.238;11.160;2023-07-24T07:43:05;15.37;;;10.93;;
5704;SDS011;2877;48.238;11.160;2023-07-24T07:45:31;22.23;;;10.10;;
5704;SDS011;2877;48.238;11.160;2023-07-24T07:47:56;18.20;;;10.23;;
5704;SDS011;2877;48.238;11.160;2023-07-24T07:50:22;19.53;;;8.57;;
5704;SDS011;2877;48.238;11.160;2023-07-24T07:52:51;15.63;;;9.20;;
5704;SDS011;2877;48.238;11.160;2023-07-24T07:55:17;12.77;;;8.00;;
5704;SDS011;2877;48.238;11.160;2023-07-24T07:57:44;10.30;;;6.90;;
5704;SDS011;2877;48.238;11.160;2023-07-24T08:00:10;11.67;;;7.43;;
5704;SDS011;2877;48.238;11.160;2023-07-24T08:02:35;10.63;;;7.27;;
5704;SDS011;2877;48.238;11.160;2023-07-24T08:05:05;14.43;;;7.60;;
5704;SDS011;2877;48.238;11.160;2023-07-24T08:07:37;11.00;;;6.80;;
5704;SDS011;2877;48.238;11.160;2023-07-24T08:10:02;11.03;;;7.80;;
5704;SDS011;2877;48.238;11.160;2023-07-24T08:12:28;10.57;;;7.10;;
5704;SDS011;2877;48.238;11.160;2023-07-24T08:14:55;12.07;;;7.47;;
5704;SDS011;2877;48.238;11.160;2023-07-24T08:17:21;14.07;;;8.33;;
5704;SDS011;2877;48.238;11.160;2023-07-24T08:19:47;14.03;;;8.10;;
5704;SDS011;2877;48.238;11.160;2023-07-24T08:22:12;15.07;;;8.27;;
5704;SDS011;2877;48.238;11.160;2023-07-24T08:24:38;12.40;;;8.33;;
5704;SDS011;2877;48.238;11.160;2023-07-24T08:27:04;12.77;;;7.63;;
5704;SDS011;2877;48.238;11.160;2023-07-24T08:29:29;14.10;;;8.27;;
5704;SDS011;2877;48.238;11.160;2023-07-24T08:31:55;10.63;;;7.90;;
5704;SDS011;2877;48.238;11.160;2023-07-24T08:34:21;12.87;;;8.23;;
5704;SDS011;2877;48.238;11.160;2023-07-24T08:36:46;14.40;;;7.80;;
5704;SDS011;2877;48.238;11.160;2023-07-24T08:39:12;13.37;;;7.87;;
5704;SDS011;2877;48.238;11.160;2023-07-24T08:41:38;11.40;;;7.50;;
5704;SDS011;2877;48.238;11.160;2023-07-24T08:44:04;18.40;;;8.83;;
5704;SDS011;2877;48.238;11.160;2023-07-24T08:46:35;10.40;;;7.80;;
5704;SDS011;2877;48.238;11.160;2023-07-24T08:49:06;10.80;;;8.03;;
5704;SDS011;2877;48.238;11.160;2023-07-24T08:51:38;10.73;;;7.73;;
5704;SDS011;2877;48.238;11.160;2023-07-24T08:54:08;11.67;;;7.00;;
5704;SDS011;2877;48.238;11.160;2023-07-24T08:56:36;9.50;;;6.77;;
5704;SDS011;2877;48.238;11.160;2023-07-24T08:59:02;12.07;;;8.10;;
5704;SDS011;2877;48.238;11.160;2023-07-24T09:01:28;9.50;;;7.47;;
5704;SDS011;2877;48.238;11.160;2023-07-24T09:03:54;9.47;;;7.17;;
5704;SDS011;2877;48.238;11.160;2023-07-24T09:06:20;9.07;;;7.00;;
5704;SDS011;2877;48.238;11.160;2023-07-24T09:08:46;10.00;;;6.83;;
5704;SDS011;2877;48.238;11.160;2023-07-24T09:11:13;10.53;;;7.43;;
5704;SDS011;2877;48.238;11.160;2023-07-24T09:13:41;13.57;;;7.53;;
5704;SDS011;2877;48.238;11.160;2023-07-24T09:16:07;10.40;;;7.20;;
5704;SDS011;2877;48.238;11.160;2023-07-24T09:18:40;9.93;;;7.30;;
5704;SDS011;2877;48.238;11.160;2023-07-24T09:21:06;12.30;;;8.03;;
5704;SDS011;2877;48.238;11.160;2023-07-24T09:23:32;12.80;;;7.90;;
5704;SDS011;2877;48.238;11.160;2023-07-24T09:25:57;10.93;;;6.87;;
5704;SDS011;2877;48.238;11.160;2023-07-24T09:28:23;12.23;;;6.50;;
5704;SDS011;2877;48.238;11.160;2023-07-24T09:30:56;11.20;;;7.90;;
5704;SDS011;2877;48.238;11.160;2023-07-24T09:36:02;10.53;;;6.87;;
5704;SDS011;2877;48.238;11.160;2023-07-24T09:38:29;14.30;;;6.67;;
5704;SDS011;2877;48.238;11.160;2023-07-24T09:40:55;8.00;;;6.60;;
5704;SDS011;2877;48.238;11.160;2023-07-24T09:43:25;14.70;;;7.83;;
5704;SDS011;2877;48.238;11.160;2023-07-24T09:45:52;11.57;;;7.40;;
5704;SDS011;2877;48.238;11.160;2023-07-24T09:48:20;9.43;;;6.60;;
5704;SDS011;2877;48.238;11.160;2023-07-24T09:50:49;11.20;;;6.90;;
5704;SDS011;2877;48.238;11.160;2023-07-24T09:55:50;9.83;;;6.07;;
5704;SDS011;2877;48.238;11.160;2023-07-24T09:58:21;7.00;;;5.60;;
5704;SDS011;2877;48.238;11.160;2023-07-24T10:00:48;9.80;;;5.90;;
5704;SDS011;2877;48.238;11.160;2023-07-24T10:03:15;7.40;;;5.50;;
5704;SDS011;2877;48.238;11.160;2023-07-24T10:05:43;10.40;;;5.90;;
5704;SDS011;2877;48.238;11.160;2023-07-24T10:08:10;7.70;;;5.30;;
5704;SDS011;2877;48.238;11.160;2023-07-24T10:10:36;8.80;;;5.17;;
5704;SDS011;2877;48.238;11.160;2023-07-24T10:13:03;9.83;;;5.80;;
5704;SDS011;2877;48.238;11.160;2023-07-24T10:15:30;6.20;;;5.10;;
5704;SDS011;2877;48.238;11.160;2023-07-24T10:18:04;6.67;;;5.00;;
5704;SDS011;2877;48.238;11.160;2023-07-24T10:20:34;9.00;;;5.60;;
5704;SDS011;2877;48.238;11.160;2023-07-24T10:23:04;6.80;;;5.20;;
5704;SDS011;2877;48.238;11.160;2023-07-24T10:25:32;7.87;;;5.20;;
5704;SDS011;2877;48.238;11.160;2023-07-24T10:28:05;7.10;;;5.30;;
5704;SDS011;2877;48.238;11.160;2023-07-24T10:30:37;5.90;;;4.77;;
5704;SDS011;2877;48.238;11.160;2023-07-24T10:33:10;5.77;;;4.77;;
5704;SDS011;2877;48.238;11.160;2023-07-24T10:35:44;5.43;;;4.63;;
5704;SDS011;2877;48.238;11.160;2023-07-24T10:38:15;5.63;;;4.43;;
5704;SDS011;2877;48.238;11.160;2023-07-24T10:40:42;6.30;;;4.97;;
5704;SDS011;2877;48.238;11.160;2023-07-24T10:43:11;5.30;;;4.63;;
5704;SDS011;2877;48.238;11.160;2023-07-24T10:45:59;5.43;;;4.67;;
5704;SDS011;2877;48.238;11.160;2023-07-24T10:48:24;5.57;;;4.33;;
5704;SDS011;2877;48.238;11.160;2023-07-24T10:50:51;8.57;;;4.40;;
5704;SDS011;2877;48.238;11.160;2023-07-24T10:53:18;6.63;;;4.40;;
5704;SDS011;2877;48.238;11.160;2023-07-24T10:55:46;5.17;;;3.90;;
5704;SDS011;2877;48.238;11.160;2023-07-24T10:58:12;4.80;;;4.13;;
5704;SDS011;2877;48.238;11.160;2023-07-24T11:00:42;6.80;;;3.97;;
5704;SDS011;2877;48.238;11.160;2023-07-24T11:03:09;5.07;;;4.30;;
5704;SDS011;2877;48.238;11.160;2023-07-24T11:05:39;4.23;;;3.40;;
5704;SDS011;2877;48.238;11.160;2023-07-24T11:08:10;4.33;;;3.50;;
5704;SDS011;2877;48.238;11.160;2023-07-24T11:10:44;4.33;;;3.57;;
5704;SDS011;2877;48.238;11.160;2023-07-24T11:13:21;5.93;;;4.00;;
5704;SDS011;2877;48.238;11.160;2023-07-24T11:15:48;4.00;;;3.60;;
5704;SDS011;2877;48.238;11.160;2023-07-24T11:18:15;3.70;;;3.23;;
5704;SDS011;2877;48.238;11.160;2023-07-24T11:20:45;5.20;;;3.97;;
5704;SDS011;2877;48.238;11.160;2023-07-24T11:23:13;4.63;;;3.53;;
5704;SDS011;2877;48.238;11.160;2023-07-24T11:25:39;4.63;;;3.57;;
5704;SDS011;2877;48.238;11.160;2023-07-24T11:28:06;7.33;;;3.70;;
5704;SDS011;2877;48.238;11.160;2023-07-24T11:30:33;5.10;;;3.37;;
5704;SDS011;2877;48.238;11.160;2023-07-24T11:32:59;4.10;;;3.20;;
5704;SDS011;2877;48.238;11.160;2023-07-24T11:35:27;5.10;;;3.77;;
5704;SDS011;2877;48.238;11.160;2023-07-24T11:37:53;5.33;;;4.30;;
5704;SDS011;2877;48.238;11.160;2023-07-24T11:40:19;5.30;;;3.47;;
5704;SDS011;2877;48.238;11.160;2023-07-24T11:42:46;5.23;;;4.00;;
5704;SDS011;2877;48.238;11.160;2023-07-24T11:45:13;6.23;;;4.57;;
5704;SDS011;2877;48.238;11.160;2023-07-24T11:47:45;4.80;;;3.57;;
5704;SDS011;2877;48.238;11.160;2023-07-24T11:50:12;5.20;;;4.07;;
5704;SDS011;2877;48.238;11.160;2023-07-24T11:52:49;7.90;;;4.00;;
5704;SDS011;2877;48.238;11.160;2023-07-24T11:55:19;6.90;;;4.47;;
5704;SDS011;2877;48.238;11.160;2023-07-24T11:57:56;5.50;;;4.30;;
5704;SDS011;2877;48.238;11.160;2023-07-24T12:00:26;4.50;;;3.90;;
5704;SDS011;2877;48.238;11.160;2023-07-24T12:02:53;5.73;;;4.03;;
5704;SDS011;2877;48.238;11.160;2023-07-24T12:05:23;10.90;;;5.57;;
5704;SDS011;2877;48.238;11.160;2023-07-24T12:07:49;8.23;;;5.70;;
5704;SDS011;2877;48.238;11.160;2023-07-24T12:10:24;7.97;;;4.70;;
5704;SDS011;2877;48.238;11.160;2023-07-24T12:12:54;13.43;;;5.97;;
5704;SDS011;2877;48.238;11.160;2023-07-24T12:15:22;9.23;;;5.47;;
5704;SDS011;2877;48.238;11.160;2023-07-24T12:17:48;8.90;;;5.53;;
5704;SDS011;2877;48.238;11.160;2023-07-24T12:20:13;7.60;;;5.80;;
5704;SDS011;2877;48.238;11.160;2023-07-24T12:22:39;8.73;;;5.37;;
5704;SDS011;2877;48.238;11.160;2023-07-24T12:25:06;12.30;;;6.73;;
5704;SDS011;2877;48.238;11.160;2023-07-24T12:27:31;10.13;;;6.50;;
5704;SDS011;2877;48.238;11.160;2023-07-24T12:29:57;11.67;;;6.90;;
5704;SDS011;2877;48.238;11.160;2023-07-24T12:32:23;10.93;;;6.30;;
5704;SDS011;2877;48.238;11.160;2023-07-24T12:34:49;7.87;;;6.33;;
5704;SDS011;2877;48.238;11.160;2023-07-24T12:37:19;10.83;;;6.50;;
5704;SDS011;2877;48.238;11.160;2023-07-24T12:39:45;6.67;;;5.13;;
5704;SDS011;2877;48.238;11.160;2023-07-24T12:42:12;11.13;;;5.13;;
5704;SDS011;2877;48.238;11.160;2023-07-24T12:44:37;7.80;;;5.17;;
5704;SDS011;2877;48.238;11.160;2023-07-24T12:47:03;10.17;;;5.40;;
5704;SDS011;2877;48.238;11.160;2023-07-24T12:49:29;6.13;;;5.00;;
5704;SDS011;2877;48.238;11.160;2023-07-24T12:51:55;6.20;;;5.33;;
5704;SDS011;2877;48.238;11.160;2023-07-24T12:54:20;11.20;;;5.57;;
5704;SDS011;2877;48.238;11.160;2023-07-24T12:56:47;13.33;;;5.87;;
5704;SDS011;2877;48.238;11.160;2023-07-24T12:59:13;7.53;;;5.27;;
5704;SDS011;2877;48.238;11.160;2023-07-24T13:01:39;7.37;;;4.90;;
5704;SDS011;2877;48.238;11.160;2023-07-24T13:04:04;7.47;;;5.07;;
5704;SDS011;2877;48.238;11.160;2023-07-24T13:06:30;15.23;;;5.80;;
5704;SDS011;2877;48.238;11.160;2023-07-24T13:08:56;9.17;;;5.33;;
5704;SDS011;2877;48.238;11.160;2023-07-24T13:11:21;7.30;;;5.70;;
5704;SDS011;2877;48.238;11.160;2023-07-24T13:13:47;9.13;;;5.77;;
5704;SDS011;2877;48.238;11.160;2023-07-24T13:16:12;9.03;;;6.07;;
5704;SDS011;2877;48.238;11.160;2023-07-24T13:18:38;8.20;;;5.50;;
5704;SDS011;2877;48.238;11.160;2023-07-24T13:21:04;7.17;;;5.30;;
5704;SDS011;2877;48.238;11.160;2023-07-24T13:23:31;8.43;;;6.03;;
5704;SDS011;2877;48.238;11.160;2023-07-24T13:25:56;9.40;;;5.87;;
5704;SDS011;2877;48.238;11.160;2023-07-24T13:28:22;7.33;;;5.53;;
5704;SDS011;2877;48.238;11.160;2023-07-24T13:30:48;9.57;;;6.73;;
5704;SDS011;2877;48.238;11.160;2023-07-24T13:33:13;9.53;;;5.83;;
5704;SDS011;2877;48.238;11.160;2023-07-24T13:35:39;6.90;;;5.63;;
5704;SDS011;2877;48.238;11.160;2023-07-24T13:38:04;6.90;;;4.80;;
5704;SDS011;2877;48.238;11.160;2023-07-24T13:40:30;5.40;;;4.60;;
5704;SDS011;2877;48.238;11.160;2023-07-24T13:42:56;8.43;;;5.50;;
5704;SDS011;2877;48.238;11.160;2023-07-24T13:45:21;9.03;;;5.30;;
5704;SDS011;2877;48.238;11.160;2023-07-24T13:47:47;6.00;;;4.70;;
5704;SDS011;2877;48.238;11.160;2023-07-24T13:50:12;4.77;;;3.80;;
5704;SDS011;2877;48.238;11.160;2023-07-24T13:52:38;5.87;;;4.17;;
5704;SDS011;2877;48.238;11.160;2023-07-24T13:55:04;4.57;;;3.77;;
5704;SDS011;2877;48.238;11.160;2023-07-24T13:57:29;5.77;;;4.33;;
5704;SDS011;2877;48.238;11.160;2023-07-24T13:59:55;6.97;;;4.30;;
5704;SDS011;2877;48.238;11.160;2023-07-24T14:02:21;6.17;;;4.43;;
5704;SDS011;2877;48.238;11.160;2023-07-24T14:04:46;5.47;;;4.13;;
5704;SDS011;2877;48.238;11.160;2023-07-24T14:07:12;5.70;;;4.90;;
5704;SDS011;2877;48.238;11.160;2023-07-24T14:09:38;5.23;;;4.40;;
5704;SDS011;2877;48.238;11.160;2023-07-24T14:12:04;7.03;;;3.80;;
5704;SDS011;2877;48.238;11.160;2023-07-24T14:14:30;5.40;;;3.80;;
5704;SDS011;2877;48.238;11.160;2023-07-24T14:16:56;5.00;;;3.80;;
5704;SDS011;2877;48.238;11.160;2023-07-24T14:19:22;5.50;;;3.73;;
5704;SDS011;2877;48.238;11.160;2023-07-24T14:21:51;3.50;;;3.20;;
5704;SDS011;2877;48.238;11.160;2023-07-24T14:24:16;4.97;;;3.27;;
5704;SDS011;2877;48.238;11.160;2023-07-24T14:26:42;3.70;;;3.40;;
5704;SDS011;2877;48.238;11.160;2023-07-24T14:29:09;4.10;;;3.70;;
5704;SDS011;2877;48.238;11.160;2023-07-24T14:31:36;3.20;;;2.90;;
5704;SDS011;2877;48.238;11.160;2023-07-24T14:34:02;4.57;;;3.13;;
5704;SDS011;2877;48.238;11.160;2023-07-24T14:36:28;3.07;;;2.80;;
5704;SDS011;2877;48.238;11.160;2023-07-24T14:38:58;3.53;;;3.23;;
5704;SDS011;2877;48.238;11.160;2023-07-24T14:41:25;3.40;;;3.10;;
5704;SDS011;2877;48.238;11.160;2023-07-24T14:43:51;3.30;;;3.00;;
5704;SDS011;2877;48.238;11.160;2023-07-24T14:46:16;3.20;;;2.90;;
5704;SDS011;2877;48.238;11.160;2023-07-24T14:48:42;3.20;;;2.70;;